Terminal Aerodrome Forecast
Issued by NWS

Current Version | Previous Version | Text Only | Print | Product List | Glossary On
Versions: 1 2 3 4 5 6 7 8 9 10 11 12 13 14 15 16 17 18 19 20 21 22 23 24
000
FTUS44 KMOB 211731
TAFBFM
TAF
KBFM 211731Z 2118/2218 11011KT 4SM -RA BR BKN006 OVC040
     FM220000 16004KT P6SM VCSH SCT007 OVC015
     FM220600 28002KT 4SM BR VCSH SCT007 BKN015
      TEMPO 2208/2212 1SM -DZ BR OVC005=

USA.gov is the U.S. government's official web portal to all federal, state and local government web resources and services.